Time;durP1;ratioP1;P1;durP2;ratioP2;P2;SDS_P1;SDS_P2;PMS_P1;PMS_P2;Temp;Humidity;BMP_temperature;BMP_pressure;BME280_temperature;BME280_humidity;BME280_pressure;Samples;Min_cycle;Max_cycle;Signal;HPM_P1;HPM_P2
2021/01/23 00:01:05;;;;;;;0.40;0.40;;;3.90;94.10;;;;;;5128304;27;27867;-59
2021/01/23 00:03:50;;;;;;;1.40;0.40;;;3.90;94.20;;;;;;5127134;27;27470;-58
2021/01/23 00:06:35;;;;;;;0.47;0.30;;;3.80;94.20;;;;;;5127514;27;27509;-58
2021/01/23 00:09:19;;;;;;;0.38;0.30;;;3.80;94.20;;;;;;5126958;27;27423;-58
2021/01/23 00:12:04;;;;;;;0.20;0.20;;;3.80;94.20;;;;;;5128095;27;28017;-57
2021/01/23 00:14:48;;;;;;;0.20;0.20;;;3.80;94.20;;;;;;5127252;27;27646;-57
2021/01/23 00:17:33;;;;;;;0.50;0.40;;;3.80;94.20;;;;;;5127835;27;27484;-58
2021/01/23 00:20:17;;;;;;;0.30;0.30;;;3.80;94.20;;;;;;5127955;27;27402;-58
2021/01/23 00:23:02;;;;;;;0.30;0.30;;;3.80;94.20;;;;;;5123758;27;27403;-58
2021/01/23 00:25:46;;;;;;;0.40;0.40;;;3.70;94.30;;;;;;5127545;27;27479;-58
2021/01/23 00:28:33;;;;;;;0.35;0.35;;;3.70;94.20;;;;;;5124314;27;27405;-59
2021/01/23 00:31:17;;;;;;;0.10;0.10;;;3.70;94.20;;;;;;5127835;27;27445;-58
2021/01/23 00:34:02;;;;;;;0.20;0.20;;;3.70;94.20;;;;;;5126768;27;27879;-58
2021/01/23 00:36:47;;;;;;;0.20;0.20;;;3.70;94.30;;;;;;5127767;27;27580;-58
2021/01/23 00:39:31;;;;;;;0.20;0.20;;;3.70;94.30;;;;;;5127390;27;27464;-59
2021/01/23 00:42:16;;;;;;;0.22;0.22;;;3.60;94.20;;;;;;5127637;27;27401;-58
2021/01/23 00:45:00;;;;;;;0.30;0.30;;;3.60;94.20;;;;;;5124267;27;27455;-57
2021/01/23 00:47:44;;;;;;;0.45;0.45;;;3.60;94.30;;;;;;5127291;27;27373;-55
2021/01/23 00:50:29;;;;;;;0.20;0.20;;;3.60;94.30;;;;;;5124045;27;27311;-55
2021/01/23 00:53:13;;;;;;;0.20;0.20;;;3.60;94.30;;;;;;5127509;27;27400;-53
2021/01/23 00:55:58;;;;;;;0.40;0.40;;;3.60;94.30;;;;;;5123048;27;27939;-52
2021/01/23 00:58:43;;;;;;;0.55;0.32;;;3.60;94.60;;;;;;5123307;27;27348;-49
2021/01/23 01:01:28;;;;;;;0.40;0.30;;;3.50;94.30;;;;;;5124091;27;26977;-49
2021/01/23 01:04:13;;;;;;;0.10;0.10;;;3.50;94.30;;;;;;5123042;27;27424;-48
2021/01/23 01:06:58;;;;;;;0.20;0.20;;;3.50;94.30;;;;;;5126549;27;27323;-47
2021/01/23 01:09:42;;;;;;;0.10;0.10;;;3.50;94.40;;;;;;5127237;27;27405;-47
2021/01/23 01:12:30;;;;;;;0.20;0.20;;;3.50;94.40;;;;;;5126929;27;27411;-52
2021/01/23 01:15:15;;;;;;;0.65;0.40;;;3.50;94.30;;;;;;5126179;27;27404;-47
2021/01/23 01:18:00;;;;;;;0.32;0.30;;;3.50;94.40;;;;;;5127058;27;27414;-47
2021/01/23 01:20:44;;;;;;;0.30;0.30;;;3.40;94.40;;;;;;5126739;27;27405;-48
2021/01/23 01:23:29;;;;;;;0.20;0.20;;;3.40;94.50;;;;;;5126556;27;27426;-48
2021/01/23 01:26:13;;;;;;;0.28;0.28;;;3.40;94.50;;;;;;5126968;27;27337;-48
2021/01/23 01:28:57;;;;;;;0.20;0.20;;;3.40;94.50;;;;;;5126929;27;27321;-48
2021/01/23 01:31:42;;;;;;;0.52;0.30;;;3.40;94.50;;;;;;5126843;27;27346;-49
2021/01/23 01:34:27;;;;;;;0.35;0.20;;;3.40;94.60;;;;;;5126240;27;27577;-48
2021/01/23 01:37:11;;;;;;;0.20;0.20;;;3.40;94.60;;;;;;5126796;27;27460;-48
2021/01/23 01:39:56;;;;;;;0.30;0.22;;;3.40;94.60;;;;;;5126405;27;27960;-48
2021/01/23 01:42:40;;;;;;;0.30;0.30;;;3.40;94.70;;;;;;5126226;27;27375;-49
2021/01/23 01:45:25;;;;;;;0.20;0.20;;;3.40;94.70;;;;;;5126408;27;27477;-50
2021/01/23 01:48:11;;;;;;;1.75;0.32;;;3.40;94.70;;;;;;5126586;27;27481;-49
2021/01/23 01:50:55;;;;;;;0.30;0.30;;;3.30;94.70;;;;;;5126462;27;27406;-49
2021/01/23 01:53:42;;;;;;;0.30;0.30;;;3.30;95.10;;;;;;5125432;27;27488;-49
2021/01/23 01:56:26;;;;;;;0.15;0.15;;;3.30;94.80;;;;;;5126297;27;27422;-49
2021/01/23 01:59:11;;;;;;;0.30;0.30;;;3.30;94.80;;;;;;5125512;27;27378;-49
2021/01/23 02:02:15;;;;;;;0.30;0.30;;;3.30;94.90;;;;;;5125930;27;27370;-48
2021/01/23 02:05:06;;;;;;;0.55;0.40;;;3.30;94.90;;;;;;5112492;27;27443;-49
2021/01/23 02:08:14;;;;;;;0.73;0.50;;;3.30;95.00;;;;;;5124974;27;27532;-49
2021/01/23 02:11:09;;;;;;;0.30;0.30;;;3.30;95.00;;;;;;5124962;27;27392;-48
2021/01/23 02:14:01;;;;;;;1.08;0.20;;;3.30;95.00;;;;;;5126100;27;27836;-49
2021/01/23 02:16:47;;;;;;;0.20;0.20;;;3.30;95.00;;;;;;5125097;27;27486;-49
2021/01/23 02:19:38;;;;;;;0.35;0.35;;;3.30;95.00;;;;;;5125844;27;27571;-48
2021/01/23 02:22:29;;;;;;;0.30;0.30;;;3.30;95.10;;;;;;5126006;27;27332;-48
2021/01/23 02:25:13;;;;;;;1.02;0.40;;;3.20;95.10;;;;;;5125919;27;27920;-48
2021/01/23 02:28:20;;;;;;;0.68;0.30;;;3.30;95.10;;;;;;5110045;27;27473;-48
2021/01/23 02:31:12;;;;;;;0.70;0.52;;;3.30;95.10;;;;;;5125029;27;27469;-48
2021/01/23 02:33:58;;;;;;;0.40;0.40;;;3.30;95.20;;;;;;5121836;27;27494;-48
2021/01/23 02:36:43;;;;;;;0.47;0.45;;;3.20;95.20;;;;;;5125514;27;27378;-48
2021/01/23 02:39:27;;;;;;;0.60;0.40;;;3.20;95.20;;;;;;5122173;27;27495;-48
2021/01/23 02:42:11;;;;;;;0.63;0.45;;;3.20;95.20;;;;;;5125809;27;27413;-48
2021/01/23 02:44:56;;;;;;;0.85;0.47;;;3.20;95.20;;;;;;5125724;27;27410;-47
2021/01/23 02:47:40;;;;;;;1.33;0.65;;;3.20;95.20;;;;;;5124886;27;27313;-47
2021/01/23 02:50:26;;;;;;;0.50;0.40;;;3.20;95.20;;;;;;5125602;27;27427;-48
2021/01/23 02:53:20;;;;;;;0.57;0.50;;;3.20;95.20;;;;;;5124614;27;27488;-48
2021/01/23 02:56:10;;;;;;;0.93;0.70;;;3.20;95.20;;;;;;5124917;27;27377;-48
2021/01/23 02:58:55;;;;;;;1.67;0.75;;;3.20;95.20;;;;;;5110203;27;27448;-49
2021/01/23 03:01:40;;;;;;;1.50;0.60;;;3.20;95.50;;;;;;5121816;27;27404;-48
2021/01/23 03:04:25;;;;;;;0.50;0.50;;;3.20;95.20;;;;;;5125123;27;27448;-49
2021/01/23 03:07:12;;;;;;;1.13;0.52;;;3.20;95.20;;;;;;5110153;27;27483;-48
2021/01/23 03:09:57;;;;;;;0.88;0.73;;;3.10;95.20;;;;;;5124140;27;27949;-47
2021/01/23 03:12:41;;;;;;;0.77;0.70;;;3.20;95.20;;;;;;5125354;27;27428;-50
2021/01/23 03:15:26;;;;;;;1.52;0.90;;;3.10;95.40;;;;;;5125112;27;27405;-48
2021/01/23 03:18:11;;;;;;;0.60;0.57;;;3.10;95.30;;;;;;5125005;27;27332;-48
2021/01/23 03:20:56;;;;;;;0.85;0.80;;;3.10;95.30;;;;;;5124914;27;27355;-47
2021/01/23 03:23:40;;;;;;;0.80;0.80;;;3.10;95.30;;;;;;5124237;27;27571;-47
2021/01/23 03:26:25;;;;;;;0.98;0.68;;;3.10;95.30;;;;;;5125212;27;27403;-48
2021/01/23 03:29:09;;;;;;;1.08;0.68;;;3.10;95.30;;;;;;5125148;27;27480;-47
2021/01/23 03:31:54;;;;;;;0.45;0.45;;;3.10;95.30;;;;;;5125040;27;27868;-48
2021/01/23 03:34:38;;;;;;;0.85;0.60;;;3.10;95.30;;;;;;5124698;27;27474;-47
2021/01/23 03:37:25;;;;;;;1.00;0.63;;;3.10;95.30;;;;;;5124036;27;27445;-47
2021/01/23 03:40:10;;;;;;;0.98;0.70;;;3.10;95.30;;;;;;5124712;27;27469;-47
2021/01/23 03:42:55;;;;;;;0.65;0.65;;;3.10;95.30;;;;;;5124827;27;27417;-47
2021/01/23 03:45:40;;;;;;;1.08;0.70;;;3.10;95.30;;;;;;5124717;27;27416;-47
2021/01/23 03:48:24;;;;;;;1.27;0.80;;;3.10;95.30;;;;;;5124725;27;27488;-47
2021/01/23 03:51:09;;;;;;;1.85;1.00;;;3.10;95.30;;;;;;5124091;27;27409;-47
2021/01/23 03:53:53;;;;;;;0.80;0.70;;;3.10;95.30;;;;;;5124505;27;27458;-47
2021/01/23 03:56:38;;;;;;;4.82;1.15;;;3.00;95.30;;;;;;5121409;27;27422;-47
2021/01/23 03:59:23;;;;;;;2.28;1.13;;;3.00;95.30;;;;;;5124838;27;27480;-47
2021/01/23 04:02:08;;;;;;;2.38;1.00;;;3.00;95.30;;;;;;5124415;27;27426;-46
2021/01/23 04:04:52;;;;;;;2.78;1.17;;;3.00;95.30;;;;;;5124651;27;27471;-47
2021/01/23 04:07:36;;;;;;;4.18;1.20;;;3.00;95.40;;;;;;5124243;27;27543;-47
2021/01/23 04:10:21;;;;;;;2.78;1.17;;;3.00;95.30;;;;;;5124636;27;27492;-47
2021/01/23 04:13:05;;;;;;;1.55;1.00;;;3.00;95.30;;;;;;5124620;27;27433;-47
2021/01/23 04:15:52;;;;;;;1.25;0.95;;;3.00;95.30;;;;;;5124507;27;27323;-47
2021/01/23 04:18:37;;;;;;;3.35;1.10;;;3.00;95.40;;;;;;5124185;27;27521;-47
2021/01/23 04:21:21;;;;;;;1.23;0.90;;;3.00;95.40;;;;;;5125509;27;26910;-47
2021/01/23 04:24:06;;;;;;;2.17;0.95;;;3.00;95.40;;;;;;5127458;27;27409;-47
2021/01/23 04:26:51;;;;;;;0.88;0.88;;;3.00;95.40;;;;;;5127836;27;28019;-47
2021/01/23 04:29:36;;;;;;;0.95;0.82;;;3.00;95.40;;;;;;5127838;27;27523;-47
2021/01/23 04:32:21;;;;;;;1.33;0.80;;;3.00;95.40;;;;;;5124565;27;27393;-47
2021/01/23 04:35:07;;;;;;;2.10;1.10;;;3.00;95.40;;;;;;5127833;27;27385;-46
2021/01/23 04:37:51;;;;;;;1.73;0.90;;;3.00;95.40;;;;;;5127753;27;27497;-47
2021/01/23 04:40:36;;;;;;;2.35;1.05;;;3.00;95.40;;;;;;5127632;27;27544;-47
2021/01/23 04:43:21;;;;;;;1.55;0.70;;;3.00;95.40;;;;;;5127750;27;27402;-46
2021/01/23 04:46:06;;;;;;;0.70;0.68;;;3.00;95.40;;;;;;5126225;27;27480;-47
2021/01/23 04:48:50;;;;;;;1.40;1.17;;;3.00;95.40;;;;;;5127568;27;27970;-47
2021/01/23 04:51:35;;;;;;;1.55;1.00;;;3.00;95.40;;;;;;5127515;27;27335;-47
2021/01/23 04:54:19;;;;;;;2.25;0.95;;;3.00;95.40;;;;;;5112013;27;27360;-47
2021/01/23 04:57:04;;;;;;;2.45;0.70;;;3.00;95.50;;;;;;5127189;27;27382;-47
2021/01/23 04:59:49;;;;;;;1.58;0.80;;;2.90;95.40;;;;;;5127079;27;27387;-47
2021/01/23 05:02:33;;;;;;;1.73;1.63;;;2.90;95.50;;;;;;5127280;27;27389;-47
2021/01/23 05:05:18;;;;;;;0.82;0.70;;;2.90;95.50;;;;;;5127373;27;27409;-47
2021/01/23 05:08:12;;;;;;;2.13;1.20;;;2.90;95.50;;;;;;5126511;27;27377;-46
2021/01/23 05:10:56;;;;;;;0.90;0.73;;;2.90;95.50;;;;;;5126942;27;27382;-47
2021/01/23 05:13:43;;;;;;;1.02;0.85;;;2.90;95.50;;;;;;5126655;27;27359;-46
2021/01/23 05:16:28;;;;;;;0.90;0.80;;;2.90;95.50;;;;;;5126897;27;27338;-46
2021/01/23 05:19:12;;;;;;;1.35;0.70;;;2.90;95.40;;;;;;5126870;27;27400;-46
2021/01/23 05:22:00;;;;;;;1.23;0.90;;;2.90;95.40;;;;;;5127039;27;27361;-46
2021/01/23 05:24:51;;;;;;;0.88;0.80;;;2.90;95.40;;;;;;5126712;27;27443;-46
2021/01/23 05:27:45;;;;;;;1.30;0.82;;;2.90;95.40;;;;;;5126787;27;27371;-46
2021/01/23 05:30:38;;;;;;;1.25;1.15;;;2.90;95.50;;;;;;5126957;27;27397;-46
2021/01/23 05:33:24;;;;;;;2.03;0.88;;;2.90;95.50;;;;;;5126391;27;27406;-46
2021/01/23 05:36:12;;;;;;;1.38;0.93;;;2.90;95.50;;;;;;5126860;27;27410;-47
2021/01/23 05:38:57;;;;;;;1.05;0.93;;;2.90;95.50;;;;;;5126615;27;27404;-47
2021/01/23 05:41:59;;;;;;;2.25;0.90;;;2.80;95.50;;;;;;5125537;27;27393;-46
2021/01/23 05:45:05;;;;;;;3.28;1.23;;;2.90;95.50;;;;;;5113638;27;27480;-47
2021/01/23 05:47:50;;;;;;;1.63;1.10;;;2.80;95.50;;;;;;5125987;27;27468;-47
2021/01/23 05:50:34;;;;;;;3.40;1.20;;;2.90;95.60;;;;;;5126412;27;27396;-47
2021/01/23 05:53:18;;;;;;;3.00;1.65;;;2.80;95.60;;;;;;5126314;27;27325;-47
2021/01/23 05:56:03;;;;;;;3.45;1.55;;;2.80;95.60;;;;;;5126550;27;27883;-47
2021/01/23 05:58:48;;;;;;;2.88;1.70;;;2.80;95.60;;;;;;5126517;27;27407;-48
2021/01/23 06:01:32;;;;;;;2.80;1.63;;;2.80;95.60;;;;;;5126265;27;27513;-47
2021/01/23 06:04:17;;;;;;;1.95;1.50;;;2.80;95.60;;;;;;5110659;27;27520;-46
2021/01/23 06:07:01;;;;;;;2.42;1.85;;;2.80;95.90;;;;;;5125280;27;27444;-50
2021/01/23 06:09:46;;;;;;;2.38;1.40;;;2.80;95.70;;;;;;5125103;27;27466;-46
2021/01/23 06:12:36;;;;;;;2.40;1.58;;;2.80;95.70;;;;;;5126009;27;27370;-52
2021/01/23 06:15:38;;;;;;;1.73;1.23;;;2.80;95.70;;;;;;5126107;27;27410;-47
2021/01/23 06:18:30;;;;;;;2.78;1.80;;;2.80;95.70;;;;;;5125873;27;27414;-48
2021/01/23 06:21:14;;;;;;;3.13;1.73;;;2.80;95.70;;;;;;5125914;27;27409;-48
2021/01/23 06:23:59;;;;;;;2.08;1.75;;;2.80;96.10;;;;;;5125993;27;27333;-48
2021/01/23 06:26:52;;;;;;;1.95;1.70;;;2.80;95.70;;;;;;5126077;27;27310;-50
2021/01/23 06:29:38;;;;;;;2.08;1.48;;;2.80;95.70;;;;;;5125972;27;27965;-48
2021/01/23 06:32:22;;;;;;;4.18;2.00;;;2.80;95.70;;;;;;5121883;27;27377;-48
2021/01/23 06:35:07;;;;;;;3.22;2.13;;;2.80;95.70;;;;;;5125519;27;27432;-48
2021/01/23 06:38:11;;;;;;;3.38;1.83;;;2.80;95.70;;;;;;5110462;27;27394;-49
2021/01/23 06:40:55;;;;;;;2.63;1.67;;;2.80;95.70;;;;;;5125090;27;27452;-50
2021/01/23 06:43:47;;;;;;;2.95;2.00;;;2.80;95.70;;;;;;5124906;27;27532;-49
2021/01/23 06:46:38;;;;;;;5.18;2.30;;;2.80;95.70;;;;;;5111661;27;27480;-48
2021/01/23 06:49:23;;;;;;;2.42;1.75;;;2.80;95.70;;;;;;5125738;27;27368;-49
2021/01/23 06:52:08;;;;;;;2.80;1.75;;;2.70;95.70;;;;;;5125597;27;27382;-49
2021/01/23 06:54:52;;;;;;;3.72;2.38;;;2.70;95.70;;;;;;5125593;27;27410;-50
2021/01/23 06:57:46;;;;;;;3.58;1.65;;;2.70;95.70;;;;;;5125695;27;27392;-50
2021/01/23 07:00:36;;;;;;;4.10;2.13;;;2.70;95.70;;;;;;5125564;27;27449;-59
2021/01/23 07:03:21;;;;;;;3.70;1.95;;;2.70;95.70;;;;;;5124905;27;27479;-49
2021/01/23 07:06:06;;;;;;;4.00;1.95;;;2.70;95.70;;;;;;5125419;27;27471;-50
2021/01/23 07:08:51;;;;;;;3.35;2.13;;;2.70;95.70;;;;;;5124609;27;27402;-60
2021/01/23 07:11:35;;;;;;;3.75;2.10;;;2.70;95.70;;;;;;5125434;27;27376;-51
2021/01/23 07:14:20;;;;;;;4.93;2.20;;;2.70;95.70;;;;;;5110080;27;27918;-51
2021/01/23 07:17:11;;;;;;;5.28;3.42;;;2.70;95.70;;;;;;5125067;27;27424;-53
2021/01/23 07:19:56;;;;;;;4.90;3.05;;;2.70;95.70;;;;;;5124675;27;27385;-54
2021/01/23 07:22:41;;;;;;;4.13;3.25;;;2.70;95.70;;;;;;5125165;27;27444;-55
2021/01/23 07:25:26;;;;;;;3.53;2.58;;;2.70;95.70;;;;;;5125195;27;27331;-55
2021/01/23 07:28:11;;;;;;;5.55;2.88;;;2.80;95.70;;;;;;5125050;27;27464;-56
2021/01/23 07:30:55;;;;;;;3.33;2.45;;;2.70;95.60;;;;;;5124157;27;27488;-55
2021/01/23 07:33:40;;;;;;;4.07;2.17;;;2.80;95.70;;;;;;5125122;27;27432;-56
2021/01/23 07:36:53;;;;;;;4.22;2.47;;;2.80;95.60;;;;;;5124892;27;27488;-64
2021/01/23 07:39:38;;;;;;;3.67;2.50;;;2.80;95.60;;;;;;5123888;27;27619;-57
2021/01/23 07:42:23;;;;;;;4.13;2.50;;;2.80;95.50;;;;;;5124430;27;27410;-57
2021/01/23 07:45:12;;;;;;;3.08;2.47;;;2.80;95.50;;;;;;5106842;27;27357;-58
2021/01/23 07:48:00;;;;;;;4.90;2.72;;;2.90;95.50;;;;;;5124939;27;28044;-58
2021/01/23 07:50:46;;;;;;;3.28;2.70;;;2.90;95.50;;;;;;5124670;27;27531;-58
2021/01/23 07:53:30;;;;;;;4.95;2.70;;;2.90;95.40;;;;;;5125071;27;27385;-58
2021/01/23 07:56:17;;;;;;;3.00;2.70;;;3.00;95.40;;;;;;5124433;27;27396;-59
2021/01/23 07:59:02;;;;;;;5.10;3.00;;;3.00;95.40;;;;;;5128452;27;27420;-59
2021/01/23 08:01:46;;;;;;;5.78;3.05;;;3.00;95.30;;;;;;5128481;27;27465;-58
2021/01/23 08:04:34;;;;;;;5.63;3.20;;;3.10;95.20;;;;;;5128259;27;27384;-66
2021/01/23 08:07:31;;;;;;;6.35;3.65;;;3.10;95.10;;;;;;5128342;27;27311;-59
2021/01/23 08:10:20;;;;;;;4.35;3.25;;;3.10;95.10;;;;;;5128014;27;27394;-58
2021/01/23 08:13:05;;;;;;;3.78;2.83;;;3.20;95.00;;;;;;5128046;27;27413;-58
2021/01/23 08:15:50;;;;;;;3.30;2.63;;;3.20;94.90;;;;;;5128263;27;27394;-58
2021/01/23 08:18:35;;;;;;;4.95;2.58;;;3.30;94.90;;;;;;5127535;27;27405;-58
2021/01/23 08:21:20;;;;;;;3.17;2.63;;;3.30;94.80;;;;;;5128203;27;27328;-58
2021/01/23 08:24:04;;;;;;;4.50;2.90;;;3.40;94.80;;;;;;5127339;27;27722;-59
2021/01/23 08:26:49;;;;;;;3.50;2.53;;;3.40;94.70;;;;;;5127757;27;27386;-59
2021/01/23 08:29:41;;;;;;;4.93;2.65;;;3.50;94.60;;;;;;5127693;27;27311;-59
2021/01/23 08:32:25;;;;;;;3.53;2.80;;;3.50;94.50;;;;;;5127884;27;27917;-59
2021/01/23 08:35:10;;;;;;;3.58;3.00;;;3.60;94.40;;;;;;5127607;27;27457;-59
2021/01/23 08:37:55;;;;;;;3.63;2.78;;;3.60;94.30;;;;;;5127674;27;27422;-59
2021/01/23 08:40:39;;;;;;;3.63;2.38;;;3.70;94.20;;;;;;5127945;27;27410;-63
2021/01/23 08:43:24;;;;;;;3.15;2.40;;;3.70;94.50;;;;;;5127519;27;27852;-60
2021/01/23 08:46:08;;;;;;;3.63;2.80;;;3.80;94.20;;;;;;5127693;27;27528;-59
2021/01/23 08:48:55;;;;;;;3.95;2.72;;;3.80;94.10;;;;;;5127723;27;27394;-59
2021/01/23 08:51:39;;;;;;;2.47;2.25;;;3.80;94.10;;;;;;5126875;27;27411;-59
2021/01/23 08:54:24;;;;;;;2.78;2.42;;;3.90;94.00;;;;;;5127571;27;27401;-59
2021/01/23 08:57:09;;;;;;;3.20;2.40;;;3.90;94.00;;;;;;5127535;27;27477;-59
2021/01/23 08:59:53;;;;;;;3.05;2.67;;;4.00;94.00;;;;;;5127473;27;27420;-59
2021/01/23 09:02:38;;;;;;;3.25;2.50;;;4.00;93.90;;;;;;5127077;27;26922;-59
2021/01/23 09:05:22;;;;;;;3.67;2.58;;;4.10;93.80;;;;;;5127333;27;27425;-59
2021/01/23 09:08:07;;;;;;;2.75;2.35;;;4.10;93.70;;;;;;5126173;27;27675;-59
2021/01/23 09:10:51;;;;;;;3.22;2.40;;;4.20;93.60;;;;;;5127044;27;27469;-58
2021/01/23 09:13:36;;;;;;;3.75;2.70;;;4.30;93.60;;;;;;5127277;27;27364;-59
2021/01/23 09:16:20;;;;;;;2.97;2.40;;;4.30;93.50;;;;;;5127270;27;27382;-59
2021/01/23 09:19:05;;;;;;;3.35;2.63;;;4.40;93.40;;;;;;5126303;27;27364;-59
2021/01/23 09:21:49;;;;;;;3.28;2.67;;;4.50;93.30;;;;;;5127291;27;26954;-61
2021/01/23 09:24:34;;;;;;;4.28;2.40;;;4.60;93.20;;;;;;5122558;27;27390;-60
2021/01/23 09:27:18;;;;;;;2.95;2.65;;;4.60;93.10;;;;;;5126743;27;27420;-58
2021/01/23 09:30:03;;;;;;;3.88;2.45;;;4.70;93.00;;;;;;5123371;27;27320;-58
2021/01/23 09:32:48;;;;;;;3.00;2.38;;;4.80;92.90;;;;;;5126714;27;27417;-61
2021/01/23 09:35:33;;;;;;;3.85;2.55;;;4.90;92.70;;;;;;5126895;27;27311;-58
2021/01/23 09:38:17;;;;;;;3.80;2.72;;;5.00;92.50;;;;;;5126458;27;27336;-58
2021/01/23 09:41:02;;;;;;;3.75;2.45;;;5.10;92.30;;;;;;5126807;27;27393;-58
2021/01/23 09:43:46;;;;;;;3.25;2.28;;;5.20;92.20;;;;;;5126591;27;27441;-58
2021/01/23 09:46:31;;;;;;;3.55;2.60;;;5.30;92.00;;;;;;5126131;27;27471;-58
2021/01/23 09:49:15;;;;;;;2.88;2.38;;;5.40;91.90;;;;;;5126320;27;27489;-57
2021/01/23 09:52:00;;;;;;;2.28;2.08;;;5.50;91.70;;;;;;5125529;27;27441;-58
2021/01/23 09:54:45;;;;;;;3.22;2.42;;;5.60;91.50;;;;;;5126524;27;27426;-58
2021/01/23 09:57:29;;;;;;;3.83;2.45;;;5.80;91.30;;;;;;5126496;27;27411;-57
2021/01/23 10:00:15;;;;;;;3.25;2.00;;;6.00;91.40;;;;;;5126286;27;27407;-58
2021/01/23 10:03:00;;;;;;;3.03;2.15;;;6.10;90.90;;;;;;5126066;27;27468;-58
2021/01/23 10:05:44;;;;;;;2.63;2.15;;;6.20;90.70;;;;;;5126461;27;27440;-58
2021/01/23 10:08:29;;;;;;;2.10;1.90;;;6.20;90.60;;;;;;5125777;27;27471;-57
2021/01/23 10:11:13;;;;;;;3.72;2.20;;;6.20;90.50;;;;;;5126034;27;28014;-58
2021/01/23 10:13:58;;;;;;;3.70;2.22;;;6.20;90.50;;;;;;5122646;27;27448;-57
2021/01/23 10:16:43;;;;;;;2.55;2.15;;;6.20;90.40;;;;;;5125467;27;27460;-57
2021/01/23 10:19:28;;;;;;;3.08;2.30;;;6.20;90.40;;;;;;5124846;27;27433;-56
2021/01/23 10:22:12;;;;;;;2.75;2.13;;;6.30;90.40;;;;;;5125860;27;27661;-57
2021/01/23 10:24:57;;;;;;;4.00;2.40;;;6.30;90.30;;;;;;5125460;27;27492;-56
2021/01/23 10:27:41;;;;;;;2.75;2.20;;;6.30;90.20;;;;;;5125936;27;27340;-54
2021/01/23 10:30:25;;;;;;;3.13;2.38;;;6.40;90.10;;;;;;5126076;27;27390;-53
2021/01/23 10:33:10;;;;;;;3.67;2.33;;;6.40;90.00;;;;;;5125717;27;27974;-52
2021/01/23 10:35:54;;;;;;;4.35;2.42;;;6.50;90.00;;;;;;5125905;27;27409;-52
2021/01/23 10:38:39;;;;;;;2.42;2.20;;;6.60;89.80;;;;;;5125489;27;27362;-56
2021/01/23 10:41:23;;;;;;;3.47;2.50;;;6.60;89.60;;;;;;5125904;27;27466;-53
2021/01/23 10:44:08;;;;;;;3.40;2.70;;;6.70;89.30;;;;;;5125531;27;27306;-52
2021/01/23 10:46:52;;;;;;;2.40;2.20;;;6.80;89.00;;;;;;5125429;27;27437;-55
2021/01/23 10:49:37;;;;;;;3.80;2.38;;;6.90;88.60;;;;;;5125749;27;27371;-53
2021/01/23 10:52:21;;;;;;;3.30;2.45;;;7.00;88.30;;;;;;5125459;27;27427;-56
2021/01/23 10:55:06;;;;;;;4.28;2.75;;;7.10;88.00;;;;;;5125579;27;27869;-55
2021/01/23 10:57:52;;;;;;;3.72;2.20;;;7.10;87.60;;;;;;5125531;27;27618;-52
2021/01/23 11:00:37;;;;;;;2.63;2.28;;;7.20;87.40;;;;;;5125627;27;27327;-51
2021/01/23 11:03:21;;;;;;;3.67;2.63;;;7.30;87.20;;;;;;5125419;27;27452;-54
2021/01/23 11:06:06;;;;;;;3.15;2.53;;;7.40;87.00;;;;;;5125435;27;27432;-53
2021/01/23 11:08:50;;;;;;;3.30;2.40;;;7.40;86.60;;;;;;5123546;27;27498;-54
2021/01/23 11:11:35;;;;;;;3.17;2.67;;;7.50;86.30;;;;;;5125160;27;27402;-54
2021/01/23 11:14:19;;;;;;;2.60;2.10;;;7.60;86.00;;;;;;5125388;27;27464;-54
2021/01/23 11:17:04;;;;;;;4.07;2.65;;;7.70;85.70;;;;;;5124582;27;27455;-52
2021/01/23 11:19:48;;;;;;;2.85;2.22;;;7.80;85.40;;;;;;5125285;27;27453;-51
2021/01/23 11:22:33;;;;;;;4.68;2.53;;;7.90;85.10;;;;;;5125112;27;27449;-54
2021/01/23 11:25:17;;;;;;;2.63;2.38;;;7.90;85.00;;;;;;5125279;27;27418;-51
2021/01/23 11:28:01;;;;;;;2.50;2.30;;;7.90;84.70;;;;;;5125202;27;27417;-54
2021/01/23 11:30:46;;;;;;;3.67;2.05;;;7.90;84.50;;;;;;5127075;27;27377;-52
2021/01/23 11:33:30;;;;;;;4.72;2.28;;;8.00;84.20;;;;;;5128915;27;27335;-53
2021/01/23 11:36:15;;;;;;;2.92;2.50;;;8.00;84.00;;;;;;5128812;27;27393;-55
2021/01/23 11:38:59;;;;;;;4.45;2.40;;;8.10;83.90;;;;;;5125416;27;27334;-54
2021/01/23 11:41:44;;;;;;;2.80;2.10;;;8.20;83.50;;;;;;5128366;27;27409;-55
2021/01/23 11:44:28;;;;;;;6.68;2.85;;;8.20;83.40;;;;;;5128109;27;27386;-52
2021/01/23 11:47:13;;;;;;;2.88;2.65;;;8.30;83.30;;;;;;5128567;27;27396;-55
2021/01/23 11:49:57;;;;;;;4.22;2.22;;;8.20;83.10;;;;;;5124394;27;27314;-57
2021/01/23 11:52:42;;;;;;;3.85;2.13;;;8.20;83.00;;;;;;5128537;27;27444;-55
2021/01/23 11:55:27;;;;;;;2.60;2.40;;;8.20;83.00;;;;;;5128250;27;27370;-55
2021/01/23 11:58:12;;;;;;;3.35;2.63;;;8.20;83.20;;;;;;5128417;27;27344;-55
2021/01/23 12:00:56;;;;;;;2.85;2.30;;;8.20;83.10;;;;;;5128236;27;27528;-54
2021/01/23 12:03:41;;;;;;;2.92;2.33;;;8.20;83.10;;;;;;5128210;27;27431;-52
2021/01/23 12:06:25;;;;;;;5.35;2.83;;;8.30;83.00;;;;;;5128400;27;27505;-54
2021/01/23 12:09:10;;;;;;;4.35;2.90;;;8.30;82.80;;;;;;5127477;27;27402;-53
2021/01/23 12:11:55;;;;;;;4.63;2.75;;;8.40;82.70;;;;;;5128073;27;27407;-52
2021/01/23 12:14:39;;;;;;;3.63;2.42;;;8.40;82.40;;;;;;5127903;27;27430;-51
2021/01/23 12:17:24;;;;;;;2.53;2.30;;;8.40;82.10;;;;;;5128230;27;27476;-52
2021/01/23 12:20:10;;;;;;;2.70;2.40;;;8.40;82.00;;;;;;5127777;27;27484;-53
2021/01/23 12:22:55;;;;;;;5.60;3.17;;;8.50;82.10;;;;;;5127856;27;27946;-52
2021/01/23 12:25:39;;;;;;;4.65;3.13;;;8.50;82.00;;;;;;5127709;27;27433;-53
2021/01/23 12:28:24;;;;;;;3.78;2.97;;;8.50;81.90;;;;;;5127993;27;26906;-54
2021/01/23 12:31:08;;;;;;;5.30;2.83;;;8.50;81.70;;;;;;5124662;27;27485;-55
2021/01/23 12:33:53;;;;;;;4.65;3.10;;;8.40;81.60;;;;;;5127765;27;27468;-54
2021/01/23 12:36:38;;;;;;;3.90;2.70;;;8.50;81.50;;;;;;5126644;27;27549;-53
2021/01/23 12:39:22;;;;;;;3.97;2.97;;;8.50;81.70;;;;;;5127783;27;27492;-55
2021/01/23 12:42:07;;;;;;;4.07;3.20;;;8.50;81.90;;;;;;5126659;27;27419;-56
2021/01/23 12:44:52;;;;;;;3.92;3.10;;;8.40;81.70;;;;;;5127278;27;27450;-53
2021/01/23 12:47:37;;;;;;;5.00;2.97;;;8.40;81.80;;;;;;5127327;27;27450;-56
2021/01/23 12:50:21;;;;;;;5.05;3.08;;;8.40;82.10;;;;;;5108794;27;27441;-55
2021/01/23 12:53:06;;;;;;;4.13;3.33;;;8.50;82.10;;;;;;5127516;27;27378;-48
2021/01/23 12:55:50;;;;;;;4.82;3.40;;;8.50;82.00;;;;;;5127150;27;27872;-56
2021/01/23 12:58:35;;;;;;;4.20;3.55;;;8.60;81.70;;;;;;5126569;27;27338;-56
2021/01/23 13:01:20;;;;;;;4.70;3.67;;;8.70;81.50;;;;;;5127485;27;27415;-56
2021/01/23 13:04:05;;;;;;;4.47;3.58;;;8.80;81.00;;;;;;5127250;27;27357;-57
2021/01/23 13:06:50;;;;;;;5.63;3.47;;;8.90;80.60;;;;;;5127145;27;27381;-57
2021/01/23 13:09:35;;;;;;;5.13;3.78;;;8.90;80.30;;;;;;5126434;27;27337;-59
2021/01/23 13:12:20;;;;;;;8.77;4.72;;;9.00;80.20;;;;;;5127318;27;27326;-59
2021/01/23 13:15:07;;;;;;;8.48;4.57;;;9.00;80.00;;;;;;5127223;27;27409;-58
2021/01/23 13:17:52;;;;;;;7.13;4.35;;;9.00;79.50;;;;;;5126980;27;27418;-58
2021/01/23 13:20:36;;;;;;;4.32;3.55;;;8.90;79.40;;;;;;5126100;27;27537;-58
2021/01/23 13:23:21;;;;;;;7.88;4.43;;;8.90;79.70;;;;;;5127093;27;27331;-59
2021/01/23 13:26:09;;;;;;;5.78;4.03;;;8.80;79.70;;;;;;5126264;27;27390;-58
2021/01/23 13:28:54;;;;;;;5.38;3.92;;;8.70;79.80;;;;;;5123586;27;27399;-59
2021/01/23 13:31:39;;;;;;;5.60;4.00;;;8.60;80.00;;;;;;5126570;27;27473;-59
2021/01/23 13:34:23;;;;;;;6.03;3.90;;;8.50;80.20;;;;;;5126915;27;27418;-60
2021/01/23 13:37:07;;;;;;;6.03;3.70;;;8.50;80.70;;;;;;5126763;27;27484;-59
2021/01/23 13:39:52;;;;;;;5.47;3.85;;;8.30;80.90;;;;;;5126569;27;27477;-60
2021/01/23 13:42:37;;;;;;;8.85;4.90;;;8.30;81.20;;;;;;5122290;27;27390;-60
2021/01/23 13:45:22;;;;;;;6.85;4.82;;;8.30;81.40;;;;;;5126749;27;27532;-60
2021/01/23 13:48:07;;;;;;;6.85;4.60;;;8.30;81.50;;;;;;5126494;27;27396;-60
2021/01/23 13:50:51;;;;;;;7.10;5.28;;;8.30;81.50;;;;;;5122314;27;27464;-60
2021/01/23 13:53:36;;;;;;;7.82;4.50;;;8.30;81.40;;;;;;5126194;27;27355;-60
2021/01/23 13:56:20;;;;;;;9.65;4.78;;;8.30;81.40;;;;;;5126145;27;27342;-59
2021/01/23 13:59:04;;;;;;;6.88;4.38;;;8.20;81.70;;;;;;5126543;27;27327;-60
2021/01/23 14:01:49;;;;;;;9.90;4.75;;;8.20;81.80;;;;;;5126395;27;27324;-60
2021/01/23 14:04:33;;;;;;;7.90;4.60;;;8.10;81.90;;;;;;5125805;27;27465;-59
2021/01/23 14:07:18;;;;;;;6.90;3.95;;;8.10;82.10;;;;;;5126444;27;27419;-58
2021/01/23 14:10:03;;;;;;;5.40;3.88;;;8.00;82.10;;;;;;5125596;27;27389;-58
2021/01/23 14:12:47;;;;;;;5.93;4.05;;;8.00;82.30;;;;;;5125966;27;27394;-58
2021/01/23 14:15:32;;;;;;;7.35;4.78;;;7.90;82.30;;;;;;5125938;27;27405;-57
2021/01/23 14:18:16;;;;;;;8.30;3.88;;;7.90;82.50;;;;;;5126264;27;27407;-56
2021/01/23 14:21:02;;;;;;;6.35;4.30;;;7.80;82.60;;;;;;5125801;27;27395;-55
2021/01/23 14:23:47;;;;;;;5.85;4.20;;;7.80;82.80;;;;;;5125945;27;27933;-57
2021/01/23 14:26:31;;;;;;;4.20;3.80;;;7.80;82.90;;;;;;5125965;27;27431;-57
2021/01/23 14:29:16;;;;;;;6.35;4.03;;;7.70;83.00;;;;;;5126120;27;27419;-57
2021/01/23 14:32:01;;;;;;;4.88;3.78;;;7.70;83.20;;;;;;5125688;27;27480;-58
2021/01/23 14:34:46;;;;;;;5.85;3.95;;;7.70;83.50;;;;;;5125665;27;27457;-59